Time;durP1;ratioP1;P1;durP2;ratioP2;P2;SDS_P1;SDS_P2;PMS_P1;PMS_P2;Temp;Humidity;BMP_temperature;BMP_pressure;BME280_temperature;BME280_humidity;BME280_pressure;Samples;Min_cycle;Max_cycle;Signal;HPM_P1;HPM_P2
2021/11/22 00:01:00;;;;;;;11.24;10.20;;;;;;;8.10;71.22;100188.27;447225;117;922609;-82
2021/11/22 00:02:05;;;;;;;;;;;;;;;8.08;71.26;100190.34;452346;114;922947;-81
2021/11/22 00:03:09;;;;;;;11.05;10.02;;;;;;;8.05;71.30;100185.34;457710;113;922512;-83
2021/11/22 00:04:13;;;;;;;10.71;9.74;;;;;;;8.02;71.35;100185.74;457410;114;922611;-81
2021/11/22 00:05:17;;;;;;;10.78;9.79;;;;;;;7.99;71.39;100189.72;458809;114;922513;-81
2021/11/22 00:06:21;;;;;;;11.98;10.76;;;;;;;7.95;71.45;100189.28;458557;114;930412;-83
2021/11/22 00:07:25;;;;;;;10.75;9.79;;;;;;;7.95;71.51;100193.88;457173;114;922823;-82
2021/11/22 00:08:29;;;;;;;10.22;9.36;;;;;;;7.94;71.51;100189.48;457467;114;922490;-83
2021/11/22 00:09:33;;;;;;;10.46;9.71;;;;;;;7.92;71.51;100187.00;457316;114;930516;-82
2021/11/22 00:10:37;;;;;;;9.97;9.17;;;;;;;7.92;71.51;100194.30;457963;114;922596;-82
2021/11/22 00:11:41;;;;;;;10.68;9.82;;;;;;;7.90;71.46;100189.07;446928;117;922592;-83
2021/11/22 00:12:45;;;;;;;10.38;9.18;;;;;;;7.90;71.47;100189.07;457346;114;922461;-81
2021/11/22 00:13:49;;;;;;;11.09;10.11;;;;;;;7.88;71.48;100188.43;455262;114;922439;-83
2021/11/22 00:14:53;;;;;;;10.90;10.00;;;;;;;7.86;71.49;100185.11;456048;114;930565;-82
2021/11/22 00:15:56;;;;;;;11.04;9.99;;;;;;;7.85;71.52;100188.02;458206;114;922293;-83
2021/11/22 00:17:01;;;;;;;10.43;9.59;;;;;;;7.83;71.52;100185.50;458835;114;922447;-81
2021/11/22 00:18:05;;;;;;;11.40;10.38;;;;;;;7.83;71.56;100181.95;449221;117;922575;-81
2021/11/22 00:19:09;;;;;;;10.73;9.58;;;;;;;7.82;71.55;100185.73;449727;114;922485;-82
2021/11/22 00:20:16;;;;;;;11.80;10.55;;;;;;;7.81;71.55;100197.63;457928;114;923402;-84
2021/11/22 00:21:20;;;;;;;11.07;9.38;;;;;;;7.80;71.54;100198.66;457893;114;922827;-81
2021/11/22 00:22:25;;;;;;;11.78;10.65;;;;;;;7.77;71.57;100196.37;458879;114;922618;-82
2021/11/22 00:23:29;;;;;;;10.68;9.80;;;;;;;7.75;71.57;100191.14;457393;114;923195;-81
2021/11/22 00:24:33;;;;;;;15.23;10.54;;;;;;;7.73;71.59;100186.95;458981;113;922621;-82
2021/11/22 00:25:37;;;;;;;10.36;9.43;;;;;;;7.73;71.64;100184.23;457856;114;923151;-84
2021/11/22 00:26:40;;;;;;;11.31;9.94;;;;;;;7.72;71.63;100190.73;450174;115;923369;-82
2021/11/22 00:27:45;;;;;;;10.73;9.84;;;;;;;7.72;71.61;100185.30;449753;115;922729;-83
2021/11/22 00:28:56;;;;;;;11.75;10.68;;;;;;;7.72;71.65;100196.16;455882;113;923041;-83
2021/11/22 00:30:06;;;;;;;11.09;10.24;;;;;;;7.71;71.61;100200.75;442339;114;923093;-82
2021/11/22 00:31:11;;;;;;;10.97;9.90;;;;;;;7.70;71.61;100193.64;457593;114;922483;-83
2021/11/22 00:32:17;;;;;;;10.66;9.77;;;;;;;7.70;71.63;100187.38;456548;114;922556;-83
2021/11/22 00:33:42;;;;;;;10.98;10.11;;;;;;;7.69;71.61;100188.41;457522;114;923491;-80
2021/11/22 00:34:56;;;;;;;11.88;10.29;;;;;;;7.69;71.62;100191.96;455752;114;922526;-83
2021/11/22 00:36:05;;;;;;;10.93;10.00;;;;;;;7.69;71.59;100199.27;455845;114;922742;-82
2021/11/22 00:37:16;;;;;;;10.84;9.86;;;;;;;7.69;71.62;100197.39;457220;114;922658;-82
2021/11/22 00:38:18;;;;;;;11.08;10.24;;;;;;;7.68;71.57;100190.28;457143;114;922554;-80
2021/11/22 00:39:22;;;;;;;13.92;10.18;;;;;;;7.70;71.58;100181.95;457506;114;922718;-80
2021/11/22 00:40:26;;;;;;;11.06;9.99;;;;;;;7.70;71.54;100177.36;458247;113;922496;-82
2021/11/22 00:41:30;;;;;;;11.11;9.03;;;;;;;7.70;71.48;100181.95;459804;112;922404;-82
2021/11/22 00:42:36;;;;;;;10.42;9.44;;;;;;;7.71;71.44;100173.61;458914;114;922780;-82
2021/11/22 00:43:40;;;;;;;10.88;9.70;;;;;;;7.72;71.42;100175.25;459355;114;923096;-82
2021/11/22 00:44:44;;;;;;;10.74;9.74;;;;;;;7.73;71.33;100171.50;457729;113;922894;-82
2021/11/22 00:45:51;;;;;;;10.01;9.18;;;;;;;7.74;71.33;100169.63;457786;114;923196;-82
2021/11/22 00:46:54;;;;;;;10.50;9.57;;;;;;;7.75;71.28;100172.14;459125;114;923240;-81
2021/11/22 00:47:59;;;;;;;10.60;9.66;;;;;;;7.77;71.29;100180.93;458496;114;923019;-82
2021/11/22 00:49:03;;;;;;;11.20;10.21;;;;;;;7.77;71.29;100180.93;457697;113;922759;-82
2021/11/22 00:50:08;;;;;;;10.15;9.29;;;;;;;7.78;71.15;100179.86;458411;113;930621;-82
2021/11/22 00:51:13;;;;;;;10.14;9.21;;;;;;;7.80;71.07;100187.80;457578;114;922525;-82
2021/11/22 00:52:17;;;;;;;10.67;9.64;;;;;;;7.81;70.97;100186.77;457004;114;922698;-82
2021/11/22 00:53:21;;;;;;;9.96;9.15;;;;;;;7.81;70.90;100184.89;457857;114;922944;-81
2021/11/22 00:54:25;;;;;;;10.92;9.94;;;;;;;7.82;70.92;100192.00;457864;114;923116;-82
2021/11/22 00:55:29;;;;;;;9.66;8.76;;;;;;;7.82;70.85;100192.00;457504;114;922716;-81
2021/11/22 00:56:35;;;;;;;10.45;9.45;;;;;;;7.83;70.77;100188.22;448855;116;922821;-82
2021/11/22 00:57:39;;;;;;;9.79;8.99;;;;;;;7.85;70.72;100186.14;455982;113;922794;-82
2021/11/22 00:58:44;;;;;;;13.65;9.59;;;;;;;7.85;70.68;100188.86;457583;114;922744;-82
2021/11/22 00:59:48;;;;;;;10.65;9.82;;;;;;;7.88;70.65;100187.62;457397;114;923120;-82
2021/11/22 01:00:52;;;;;;;10.84;9.58;;;;;;;7.89;70.58;100195.54;448622;116;922892;-82
2021/11/22 01:01:56;;;;;;;11.49;10.41;;;;;;;7.90;70.44;100194.50;448684;116;923280;-82
2021/11/22 01:03:00;;;;;;;10.84;9.84;;;;;;;7.91;70.32;100187.20;447640;116;922607;-82
2021/11/22 01:04:05;;;;;;;9.89;9.09;;;;;;;7.90;70.29;100193.66;448382;116;922691;-82
2021/11/22 01:05:09;;;;;;;10.43;9.53;;;;;;;7.89;70.23;100189.27;459044;114;930773;-81
2021/11/22 01:06:14;;;;;;;10.43;9.38;;;;;;;7.88;70.23;100180.28;458127;114;922859;-83
2021/11/22 01:07:18;;;;;;;9.71;8.80;;;;;;;7.87;70.17;100192.21;458779;114;923352;-82
2021/11/22 01:08:22;;;;;;;12.39;9.94;;;;;;;7.87;70.15;100194.93;458904;114;922704;-83
2021/11/22 01:09:27;;;;;;;10.45;9.01;;;;;;;7.87;70.13;100194.09;458781;114;922997;-84
2021/11/22 01:10:32;;;;;;;9.69;8.80;;;;;;;7.87;69.94;100185.95;458191;114;923063;-82
2021/11/22 01:11:36;;;;;;;11.57;9.47;;;;;;;7.85;69.90;100190.73;458481;114;922615;-83
2021/11/22 01:12:41;;;;;;;9.45;8.51;;;;;;;7.82;69.87;100194.72;458740;113;922595;-82
2021/11/22 01:13:45;;;;;;;9.80;8.95;;;;;;;7.79;69.90;100192.39;457533;114;922509;-82
2021/11/22 01:14:49;;;;;;;9.38;8.49;;;;;;;7.76;69.93;100192.82;456249;114;922526;-82
2021/11/22 01:15:52;;;;;;;10.61;9.63;;;;;;;7.74;69.96;100194.89;449503;116;922758;-82
2021/11/22 01:16:56;;;;;;;11.31;8.76;;;;;;;7.73;70.02;100197.80;457363;114;922912;-82
2021/11/22 01:18:00;;;;;;;9.85;8.91;;;;;;;7.71;70.05;100197.20;457769;114;930152;-81
2021/11/22 01:19:06;;;;;;;8.72;7.84;;;;;;;7.68;70.13;100193.00;457731;114;923144;-81
2021/11/22 01:20:12;;;;;;;9.89;8.57;;;;;;;7.65;70.16;100192.59;457494;113;922673;-80
2021/11/22 01:21:16;;;;;;;9.87;8.94;;;;;;;7.63;70.18;100200.92;457086;114;922514;-83
2021/11/22 01:22:21;;;;;;;9.98;8.98;;;;;;;7.62;70.27;100203.83;449227;116;922848;-82
2021/11/22 01:23:25;;;;;;;9.24;8.33;;;;;;;7.59;70.32;100201.54;457893;113;923217;-83
2021/11/22 01:24:29;;;;;;;9.21;8.31;;;;;;;7.58;70.38;100200.70;457236;114;922342;-82
2021/11/22 01:25:33;;;;;;;9.45;8.48;;;;;;;7.55;70.45;100203.84;457490;114;922872;-81
2021/11/22 01:26:37;;;;;;;9.95;8.48;;;;;;;7.53;70.49;100198.61;457116;114;930313;-82
2021/11/22 01:27:41;;;;;;;10.84;9.85;;;;;;;7.50;70.60;100207.14;447855;116;922840;-82
2021/11/22 01:28:45;;;;;;;14.21;12.90;;;;;;;7.48;70.69;100206.52;451466;116;930292;-81
2021/11/22 01:29:48;;;;;;;14.08;12.75;;;;;;;7.48;70.70;100201.10;460117;114;923009;-81
2021/11/22 01:30:52;;;;;;;10.46;9.47;;;;;;;7.48;70.70;100201.10;459145;114;922913;-81
2021/11/22 01:31:56;;;;;;;10.79;9.52;;;;;;;7.51;70.91;100203.39;455738;113;922772;-82
2021/11/22 01:33:00;;;;;;;10.20;9.22;;;;;;;7.53;70.94;100203.19;456263;113;923035;-82
2021/11/22 01:34:04;;;;;;;10.59;9.14;;;;;;;7.53;70.93;100206.75;456785;114;923047;-82
2021/11/22 01:35:09;;;;;;;11.05;9.94;;;;;;;7.55;70.94;100203.84;459644;114;923234;-82
2021/11/22 01:36:14;;;;;;;10.87;9.81;;;;;;;7.55;70.96;100203.84;457943;114;922669;-81
2021/11/22 01:37:19;;;;;;;9.49;8.56;;;;;;;7.55;70.98;100210.07;447837;116;923040;-81
2021/11/22 01:38:23;;;;;;;9.86;8.95;;;;;;;7.58;71.01;100206.13;456223;114;922580;-81
2021/11/22 01:39:27;;;;;;;12.41;9.58;;;;;;;7.59;71.01;100209.68;459696;114;922511;-82
2021/11/22 01:40:30;;;;;;;11.01;10.02;;;;;;;7.59;71.03;100207.80;457647;114;923001;-81
2021/11/22 01:41:34;;;;;;;11.23;10.21;;;;;;;7.59;71.02;100206.97;457764;114;922757;-82
2021/11/22 01:42:40;;;;;;;11.29;10.19;;;;;;;7.59;71.04;100201.54;457726;114;922569;-82
2021/11/22 01:43:44;;;;;;;10.92;9.49;;;;;;;7.58;71.05;100200.70;448192;117;923055;-82
2021/11/22 01:44:48;;;;;;;10.50;9.64;;;;;;;7.57;71.08;100199.02;448759;116;922694;-82
2021/11/22 01:45:52;;;;;;;10.97;9.91;;;;;;;7.55;71.16;100209.27;457650;114;922642;-82
2021/11/22 01:46:57;;;;;;;10.26;9.33;;;;;;;7.54;71.24;100204.88;457923;114;923058;-83
2021/11/22 01:48:01;;;;;;;8.97;8.25;;;;;;;7.53;71.30;100200.48;457344;114;922675;-83
2021/11/22 01:49:05;;;;;;;8.81;7.99;;;;;;;7.52;71.35;100210.50;456768;113;922679;-82
2021/11/22 01:50:13;;;;;;;9.35;8.50;;;;;;;7.51;71.21;100208.81;456308;114;922623;-83
2021/11/22 01:51:16;;;;;;;10.23;9.30;;;;;;;7.50;71.46;100215.28;456409;114;922689;-82
2021/11/22 01:52:20;;;;;;;10.54;9.58;;;;;;;7.48;71.57;100211.11;459803;114;922614;-82
2021/11/22 01:53:25;;;;;;;10.90;9.36;;;;;;;7.47;71.61;100206.72;456802;114;922745;-82
2021/11/22 01:54:30;;;;;;;9.54;8.57;;;;;;;7.44;71.70;100212.56;453449;114;922532;-81
2021/11/22 01:55:35;;;;;;;10.27;9.21;;;;;;;7.43;71.75;100210.89;458565;114;922541;-82
2021/11/22 01:56:39;;;;;;;9.54;8.78;;;;;;;7.41;71.83;100197.52;458568;114;922518;-82
2021/11/22 01:57:44;;;;;;;9.72;8.68;;;;;;;7.40;71.93;100201.27;458679;114;922881;-81
2021/11/22 01:58:49;;;;;;;9.17;8.27;;;;;;;7.40;71.98;100200.42;458934;114;930700;-81
2021/11/22 01:59:53;;;;;;;9.76;8.81;;;;;;;7.40;72.00;100198.55;458300;114;922449;-82
2021/11/22 02:00:57;;;;;;;9.64;8.82;;;;;;;7.40;72.07;100193.13;459465;114;922574;-81
2021/11/22 02:02:04;;;;;;;9.75;8.50;;;;;;;7.42;72.11;100201.08;456738;114;922880;-80
2021/11/22 02:03:09;;;;;;;10.26;8.94;;;;;;;7.43;72.14;100198.16;456532;114;922549;-80
2021/11/22 02:04:15;;;;;;;10.13;9.13;;;;;;;7.44;72.12;100191.67;459047;114;922930;-80
2021/11/22 02:05:19;;;;;;;11.18;10.06;;;;;;;7.46;72.12;100192.31;458733;114;922553;-81
2021/11/22 02:06:23;;;;;;;10.82;9.34;;;;;;;7.47;72.16;100193.16;457303;114;922857;-79
2021/11/22 02:07:27;;;;;;;9.58;8.68;;;;;;;7.47;72.12;100183.14;456808;113;923087;-80
2021/11/22 02:08:30;;;;;;;10.26;9.18;;;;;;;7.49;72.12;100191.09;457591;114;922721;-80
2021/11/22 02:09:35;;;;;;;9.72;8.93;;;;;;;7.48;72.12;100195.67;458031;114;922540;-81
2021/11/22 02:10:39;;;;;;;9.83;8.84;;;;;;;7.49;72.08;100191.09;456689;114;922704;-82
2021/11/22 02:11:43;;;;;;;10.20;9.21;;;;;;;7.48;72.06;100198.39;449026;116;922793;-83
2021/11/22 02:12:48;;;;;;;10.57;9.75;;;;;;;7.47;72.08;100209.44;449017;116;922983;-81
2021/11/22 02:13:52;;;;;;;14.63;9.08;;;;;;;7.44;72.11;100210.66;457241;114;922298;-82
2021/11/22 02:14:55;;;;;;;10.08;9.18;;;;;;;7.43;72.09;100216.31;456467;113;930701;-80
2021/11/22 02:16:00;;;;;;;10.36;9.37;;;;;;;7.41;72.16;100221.94;458178;114;922620;-79
2021/11/22 02:17:04;;;;;;;10.62;9.62;;;;;;;7.40;72.17;100220.25;449721;116;930530;-83
2021/11/22 02:18:08;;;;;;;10.46;9.51;;;;;;;7.38;72.22;100218.80;458673;114;930553;-81
2021/11/22 02:19:12;;;;;;;10.55;9.50;;;;;;;7.36;72.27;100220.87;457632;114;922864;-83
2021/11/22 02:20:23;;;;;;;10.57;9.46;;;;;;;7.35;72.32;100224.61;458555;114;922852;-85
2021/11/22 02:21:27;;;;;;;9.98;9.08;;;;;;;7.32;72.38;100223.16;458849;114;922650;-84
2021/11/22 02:22:33;;;;;;;10.08;9.22;;;;;;;7.29;72.46;100223.55;458831;112;922688;-83
2021/11/22 02:23:36;;;;;;;10.09;9.12;;;;;;;7.28;72.48;100219.16;458166;114;922965;-81
2021/11/22 02:24:40;;;;;;;10.44;9.52;;;;;;;7.26;72.57;100217.70;458841;114;923069;-81
2021/11/22 02:25:44;;;;;;;9.97;9.07;;;;;;;7.25;72.66;100216.02;459127;114;922664;-82
2021/11/22 02:26:48;;;;;;;10.44;9.48;;;;;;;7.23;72.73;100213.51;458117;113;922601;-83
2021/11/22 02:27:53;;;;;;;12.30;9.22;;;;;;;7.21;72.76;100226.45;448508;116;922587;-79
2021/11/22 02:28:57;;;;;;;11.03;10.01;;;;;;;7.19;72.85;100219.54;441372;116;923159;-84
2021/11/22 02:30:01;;;;;;;11.34;10.40;;;;;;;7.18;72.92;100223.28;448139;116;922913;-81
2021/11/22 02:31:05;;;;;;;10.79;9.76;;;;;;;7.15;72.97;100224.54;448897;116;922636;-80
2021/11/22 02:32:09;;;;;;;10.16;9.12;;;;;;;7.12;73.06;100223.05;457511;114;922469;-82
2021/11/22 02:33:16;;;;;;;10.89;9.96;;;;;;;7.10;73.10;100222.44;457714;113;922676;-81
2021/11/22 02:34:21;;;;;;;10.26;9.32;;;;;;;7.07;73.27;100222.83;457773;114;922529;-82
2021/11/22 02:35:26;;;;;;;11.54;10.46;;;;;;;7.06;73.41;100212.17;457047;114;923010;-82
2021/11/22 02:36:31;;;;;;;11.21;10.14;;;;;;;7.04;73.49;100214.27;456507;114;922928;-84
2021/11/22 02:37:35;;;;;;;11.18;10.26;;;;;;;7.03;73.72;100215.30;456679;113;922601;-81
2021/11/22 02:38:40;;;;;;;11.38;10.38;;;;;;;7.02;73.80;100209.03;447111;117;922673;-81
2021/11/22 02:39:43;;;;;;;11.60;10.62;;;;;;;7.01;73.93;100209.23;448129;116;922558;-81
2021/11/22 02:40:47;;;;;;;12.94;10.46;;;;;;;7.00;73.99;100208.39;459093;114;922564;-80
2021/11/22 02:41:51;;;;;;;10.69;9.89;;;;;;;6.98;74.06;100212.35;458416;114;922815;-81
2021/11/22 02:42:55;;;;;;;11.83;10.75;;;;;;;6.96;74.17;100209.84;457677;114;922497;-80
2021/11/22 02:43:59;;;;;;;11.75;10.61;;;;;;;6.96;74.32;100211.70;457545;114;924771;-85
2021/11/22 02:45:03;;;;;;;12.14;11.03;;;;;;;6.96;74.47;100217.13;457982;114;922629;-81
2021/11/22 02:46:09;;;;;;;12.09;11.07;;;;;;;6.95;74.69;100227.13;457831;114;930354;-80
2021/11/22 02:47:13;;;;;;;12.24;11.21;;;;;;;6.93;74.76;100221.09;457768;114;922869;-83
2021/11/22 02:48:16;;;;;;;11.31;10.36;;;;;;;6.92;74.90;100218.58;458771;114;930181;-81
2021/11/22 02:49:20;;;;;;;12.51;11.51;;;;;;;6.92;75.05;100218.58;457786;114;930296;-83
2021/11/22 02:50:25;;;;;;;12.30;11.30;;;;;;;6.92;75.26;100218.58;457902;113;922493;-82
2021/11/22 02:51:29;;;;;;;12.25;11.26;;;;;;;6.90;75.23;100212.50;459064;114;923200;-82
2021/11/22 02:52:32;;;;;;;11.78;10.64;;;;;;;6.89;75.31;100216.28;458626;114;922672;-81
2021/11/22 02:53:37;;;;;;;12.12;10.94;;;;;;;6.89;75.36;100205.44;458620;113;922516;-81
2021/11/22 02:54:43;;;;;;;12.53;11.42;;;;;;;6.87;75.44;100205.63;456991;113;922643;-82
2021/11/22 02:55:48;;;;;;;11.17;10.35;;;;;;;6.88;75.55;100207.30;440666;118;930511;-82
2021/11/22 02:56:51;;;;;;;12.06;10.96;;;;;;;6.87;75.62;100202.92;442208;114;922905;-80
2021/11/22 02:57:55;;;;;;;12.18;11.06;;;;;;;6.87;75.67;100208.34;457945;114;922674;-80
2021/11/22 02:59:00;;;;;;;11.61;10.69;;;;;;;6.87;75.77;100204.78;457430;114;923521;-80
2021/11/22 03:00:10;;;;;;;10.94;9.76;;;;;;;6.86;75.83;100203.95;457867;114;922361;-80
2021/11/22 03:01:14;;;;;;;12.53;11.53;;;;;;;6.87;75.88;100204.78;458423;114;930502;-81
2021/11/22 03:02:19;;;;;;;12.86;11.76;;;;;;;6.85;75.97;100204.98;457532;114;922546;-82
2021/11/22 03:03:28;;;;;;;12.25;11.08;;;;;;;6.86;76.09;100209.37;457059;114;922575;-82
2021/11/22 03:04:34;;;;;;;13.26;12.03;;;;;;;6.87;76.15;100202.08;456274;114;923134;-81
2021/11/22 03:05:38;;;;;;;12.49;11.42;;;;;;;6.86;76.17;100206.66;454320;114;923143;-81
2021/11/22 03:06:43;;;;;;;13.70;12.51;;;;;;;6.87;76.19;100205.63;453528;114;923115;-81
2021/11/22 03:07:51;;;;;;;12.90;11.80;;;;;;;6.87;76.25;100202.08;459026;113;923600;-81
2021/11/22 03:08:55;;;;;;;13.26;11.71;;;;;;;6.87;76.24;100208.34;458813;114;922577;-81
2021/11/22 03:09:59;;;;;;;13.71;12.47;;;;;;;6.87;76.35;100208.34;459738;114;922675;-81
2021/11/22 03:11:03;;;;;;;12.26;11.15;;;;;;;6.86;76.42;100206.66;457799;114;922701;-82
2021/11/22 03:12:10;;;;;;;13.37;12.14;;;;;;;6.87;76.45;100210.20;458561;114;930450;-81
2021/11/22 03:13:14;;;;;;;12.76;11.28;;;;;;;6.86;76.52;100211.23;458608;114;930468;-81
2021/11/22 03:14:18;;;;;;;12.69;11.61;;;;;;;6.85;76.62;100201.42;457548;114;922821;-82
2021/11/22 03:15:22;;;;;;;12.08;11.14;;;;;;;6.84;76.64;100208.72;456797;114;922657;-82
2021/11/22 03:16:29;;;;;;;13.11;11.96;;;;;;;6.84;76.74;100197.88;457507;114;922565;-82
2021/11/22 03:17:31;;;;;;;11.88;10.91;;;;;;;6.85;76.78;100207.69;457720;114;922783;-81
2021/11/22 03:18:35;;;;;;;12.10;11.11;;;;;;;6.86;76.85;100206.66;457820;114;922592;-81
2021/11/22 03:19:39;;;;;;;12.76;11.03;;;;;;;6.87;76.91;100204.78;457489;114;922602;-80
2021/11/22 03:20:44;;;;;;;11.61;10.62;;;;;;;6.87;76.94;100205.63;458320;114;923040;-82
2021/11/22 03:21:48;;;;;;;13.50;11.29;;;;;;;6.88;76.96;100210.02;458059;113;922731;-81
2021/11/22 03:22:52;;;;;;;13.35;12.17;;;;;;;6.89;76.97;100214.38;457687;114;923285;-81
2021/11/22 03:23:56;;;;;;;12.61;11.58;;;;;;;6.90;77.03;100209.80;457261;114;922768;-81
2021/11/22 03:25:00;;;;;;;12.58;11.39;;;;;;;6.91;77.03;100211.47;456796;114;922884;-82
2021/11/22 03:26:04;;;;;;;13.36;11.93;;;;;;;6.92;77.06;100215.86;456590;114;922750;-81
2021/11/22 03:27:10;;;;;;;12.45;11.28;;;;;;;6.92;77.14;100222.12;456631;114;922537;-83
2021/11/22 03:28:16;;;;;;;13.82;11.42;;;;;;;6.93;77.18;100225.67;459171;114;923233;-81
2021/11/22 03:29:20;;;;;;;12.67;11.67;;;;;;;6.93;77.21;100221.09;458470;113;922880;-81
2021/11/22 03:30:24;;;;;;;14.29;11.86;;;;;;;6.95;77.25;100212.73;458159;114;922844;-83
2021/11/22 03:31:28;;;;;;;12.94;11.86;;;;;;;6.95;77.31;100213.58;460615;114;922464;-81
2021/11/22 03:32:32;;;;;;;12.88;11.79;;;;;;;6.96;77.35;100212.55;459111;114;922814;-82
2021/11/22 03:33:36;;;;;;;13.12;11.72;;;;;;;6.97;77.33;100214.22;457815;114;922662;-83
2021/11/22 03:34:39;;;;;;;13.21;11.69;;;;;;;6.98;77.33;100205.06;458193;114;922584;-80
2021/11/22 03:35:44;;;;;;;12.72;11.54;;;;;;;6.99;77.37;100212.16;458011;114;922564;-81
2021/11/22 03:36:48;;;;;;;13.82;12.61;;;;;;;7.00;77.41;100207.58;459407;114;922833;-82
2021/11/22 03:37:52;;;;;;;13.15;11.96;;;;;;;7.00;77.41;100211.09;457862;114;922442;-81
2021/11/22 03:38:56;;;;;;;13.16;11.99;;;;;;;7.01;77.42;100214.65;458210;114;923044;-82
2021/11/22 03:40:00;;;;;;;14.26;12.92;;;;;;;7.03;77.46;100218.01;459391;114;922596;-79
2021/11/22 03:41:11;;;;;;;13.37;12.08;;;;;;;7.01;77.46;100229.05;457052;114;922599;-82
2021/11/22 03:42:14;;;;;;;13.25;12.14;;;;;;;7.02;77.49;100232.59;458054;113;922501;-81
2021/11/22 03:43:26;;;;;;;13.97;12.75;;;;;;;7.01;77.58;100229.05;457290;114;922587;-83
2021/11/22 03:44:22;;;;;;;13.99;12.76;;;;;;;7.02;77.56;100232.59;457703;114;922603;-82
2021/11/22 03:45:26;;;;;;;13.69;12.51;;;;;;;7.03;77.57;100231.56;457679;114;922702;-82
2021/11/22 03:46:30;;;;;;;14.10;12.75;;;;;;;7.03;77.56;100236.98;449181;116;922557;-81
2021/11/22 03:47:34;;;;;;;14.14;12.94;;;;;;;7.04;77.57;100238.66;449259;115;922880;-82
2021/11/22 03:48:38;;;;;;;13.72;12.47;;;;;;;7.04;77.57;100238.66;443280;118;922631;-79
2021/11/22 03:49:41;;;;;;;14.28;13.02;;;;;;;7.04;77.61;100235.95;443258;116;922940;-81
2021/11/22 03:50:45;;;;;;;14.09;12.88;;;;;;;7.04;77.62;100231.38;449797;115;922880;-81
2021/11/22 03:51:50;;;;;;;14.28;12.91;;;;;;;7.05;77.63;100235.77;452122;115;922755;-79
2021/11/22 03:52:53;;;;;;;14.72;13.34;;;;;;;7.06;77.63;100239.28;453083;114;922651;-82
2021/11/22 03:53:57;;;;;;;14.62;13.31;;;;;;;7.06;77.64;100236.56;452560;115;922967;-81
2021/11/22 03:55:01;;;;;;;14.88;13.64;;;;;;;7.06;77.64;100231.98;452573;115;922593;-82
2021/11/22 03:56:05;;;;;;;14.32;13.06;;;;;;;7.08;77.65;100235.34;452985;115;923052;-80
2021/11/22 03:57:09;;;;;;;13.76;12.67;;;;;;;7.08;77.64;100229.92;453670;116;922585;-80
2021/11/22 03:58:13;;;;;;;14.15;12.72;;;;;;;7.09;77.62;100233.47;452397;114;923090;-81
2021/11/22 03:59:17;;;;;;;14.77;13.28;;;;;;;7.09;77.56;100228.05;452210;115;922673;-82
2021/11/22 04:00:24;;;;;;;15.51;14.07;;;;;;;7.08;77.55;100243.48;451062;115;922590;-82
2021/11/22 04:01:30;;;;;;;13.87;12.81;;;;;;;7.09;77.56;100239.73;451643;116;922667;-81
2021/11/22 04:02:34;;;;;;;13.29;11.98;;;;;;;7.11;77.57;100236.83;452224;114;922596;-80
2021/11/22 04:03:38;;;;;;;15.80;13.77;;;;;;;7.11;77.59;100245.77;451345;115;922672;-81
2021/11/22 04:04:42;;;;;;;13.17;12.07;;;;;;;7.12;77.57;100243.90;442694;117;922812;-81
2021/11/22 04:05:46;;;;;;;14.90;13.69;;;;;;;7.13;77.54;100256.42;443603;116;922658;-81
2021/11/22 04:06:52;;;;;;;13.68;12.55;;;;;;;7.14;77.50;100258.11;451664;115;923149;-80
2021/11/22 04:07:55;;;;;;;14.26;12.69;;;;;;;7.15;77.51;100253.52;450967;115;923959;-80
2021/11/22 04:08:59;;;;;;;14.27;13.09;;;;;;;7.15;77.51;100248.10;451125;115;922956;-81
2021/11/22 04:10:04;;;;;;;14.79;13.38;;;;;;;7.16;77.54;100245.20;443069;118;922777;-82
2021/11/22 04:11:08;;;;;;;14.83;13.46;;;;;;;7.17;77.52;100257.69;442682;116;922809;-83
2021/11/22 04:12:12;;;;;;;13.81;12.68;;;;;;;7.19;77.48;100250.20;449652;115;923127;-79
2021/11/22 04:13:16;;;;;;;14.11;12.97;;;;;;;7.19;77.45;100249.36;450197;115;922818;-81
2021/11/22 04:14:20;;;;;;;14.41;13.25;;;;;;;7.19;77.42;100258.34;452138;115;922846;-82
2021/11/22 04:15:24;;;;;;;14.41;12.88;;;;;;;7.20;77.42;100253.75;452241;115;930478;-82
2021/11/22 04:16:29;;;;;;;13.89;12.75;;;;;;;7.20;77.44;100251.88;453222;115;923213;-83
2021/11/22 04:17:34;;;;;;;14.03;12.84;;;;;;;7.20;77.44;100259.18;452452;115;922784;-84
2021/11/22 04:18:38;;;;;;;14.58;13.48;;;;;;;7.20;77.42;100249.17;453442;115;923615;-81
2021/11/22 04:19:42;;;;;;;13.86;12.75;;;;;;;7.21;77.38;100250.02;452728;115;923899;-80
2021/11/22 04:20:45;;;;;;;14.81;13.31;;;;;;;7.21;77.39;100253.56;451919;116;925427;-81
2021/11/22 04:21:49;;;;;;;14.19;12.86;;;;;;;7.21;77.37;100248.14;452030;115;930356;-81
2021/11/22 04:22:53;;;;;;;13.26;12.16;;;;;;;7.22;77.37;100257.11;452221;116;922596;-82
2021/11/22 04:23:57;;;;;;;13.78;12.48;;;;;;;7.22;77.41;100259.83;451432;115;922592;-81
2021/11/22 04:25:02;;;;;;;15.02;13.76;;;;;;;7.22;77.41;100259.83;451314;116;922630;-82
2021/11/22 04:26:10;;;;;;;14.38;13.18;;;;;;;7.21;77.36;100261.70;450690;115;922837;-82
2021/11/22 04:27:13;;;;;;;15.01;13.63;;;;;;;7.21;77.42;100266.28;451893;115;923199;-80
2021/11/22 04:28:17;;;;;;;15.78;14.18;;;;;;;7.21;77.50;100261.70;451550;115;922562;-83
2021/11/22 04:29:21;;;;;;;13.51;12.38;;;;;;;7.19;77.52;100261.05;450940;115;923165;-81
2021/11/22 04:30:26;;;;;;;15.98;13.86;;;;;;;7.19;77.52;100258.34;451748;115;923161;-83
2021/11/22 04:31:30;;;;;;;15.37;14.01;;;;;;;7.20;77.53;100261.89;451157;115;923107;-82
2021/11/22 04:32:34;;;;;;;15.45;14.14;;;;;;;7.20;77.57;100267.31;451116;115;922464;-81
2021/11/22 04:33:39;;;;;;;15.49;14.12;;;;;;;7.19;77.61;100271.05;452077;115;922564;-81
2021/11/22 04:34:42;;;;;;;15.31;13.65;;;;;;;7.20;77.61;100268.16;451056;115;923082;-81
2021/11/22 04:35:46;;;;;;;15.84;14.18;;;;;;;7.20;77.61;100273.58;451434;115;922901;-79
2021/11/22 04:36:50;;;;;;;15.46;14.11;;;;;;;7.21;77.61;100271.70;450797;115;923090;-82
2021/11/22 04:37:54;;;;;;;14.74;13.61;;;;;;;7.20;77.62;100273.58;449201;115;922880;-82
2021/11/22 04:38:57;;;;;;;15.39;13.97;;;;;;;7.21;77.65;100274.41;450660;115;923070;-84
2021/11/22 04:40:04;;;;;;;14.74;13.51;;;;;;;7.21;77.67;100272.55;450773;115;923095;-80
2021/11/22 04:41:08;;;;;;;15.59;14.15;;;;;;;7.22;77.68;100270.67;452750;115;922993;-82
2021/11/22 04:42:12;;;;;;;16.38;14.96;;;;;;;7.21;77.70;100277.13;452453;115;922648;-81
2021/11/22 04:43:16;;;;;;;15.69;14.12;;;;;;;7.22;77.80;100281.52;453011;115;922638;-82
2021/11/22 04:44:21;;;;;;;17.48;14.75;;;;;;;7.21;77.72;100283.39;452838;115;922822;-82
2021/11/22 04:45:30;;;;;;;14.61;13.15;;;;;;;7.23;77.80;100280.45;452750;115;930362;-81
2021/11/22 04:46:34;;;;;;;15.84;14.31;;;;;;;7.23;77.82;100278.58;451347;115;922721;-82
2021/11/22 04:47:38;;;;;;;16.12;14.22;;;;;;;7.24;77.80;100284.84;451560;115;922768;-82
2021/11/22 04:48:42;;;;;;;15.69;14.21;;;;;;;7.24;77.76;100288.39;452248;114;922737;-81
2021/11/22 04:49:47;;;;;;;16.24;14.75;;;;;;;7.24;77.81;100284.84;452015;115;923431;-81
2021/11/22 04:50:51;;;;;;;15.82;14.26;;;;;;;7.24;77.81;100291.11;451451;115;922559;-84
2021/11/22 04:51:55;;;;;;;16.41;14.50;;;;;;;7.25;77.81;100287.37;451306;115;922795;-82
2021/11/22 04:53:01;;;;;;;15.42;14.17;;;;;;;7.26;77.82;100294.47;450444;114;922611;-83
2021/11/22 04:54:05;;;;;;;14.73;13.42;;;;;;;7.27;77.79;100287.17;451057;115;923038;-84
2021/11/22 04:55:09;;;;;;;16.91;15.18;;;;;;;7.28;77.86;100289.66;450957;115;922549;-83
2021/11/22 04:56:14;;;;;;;15.97;14.44;;;;;;;7.30;77.83;100300.31;451127;115;923234;-82